Time;durP1;ratioP1;P1;durP2;ratioP2;P2;SDS_P1;SDS_P2;PMS_P1;PMS_P2;Temp;Humidity;BMP_temperature;BMP_pressure;BME280_temperature;BME280_humidity;BME280_pressure;Samples;Min_cycle;Max_cycle;Signal;HPM_P1;HPM_P2
2023/04/01 00:01:46;;;;;;;1.13;1.03;;;6.70;99.90;;;;;;5029418;28;20696;-56
2023/04/01 00:04:12;;;;;;;4.40;1.10;;;6.70;99.90;;;;;;5025628;28;20211;-55
2023/04/01 00:06:37;;;;;;;2.90;1.87;;;6.70;99.90;;;;;;5031013;28;20211;-55
2023/04/01 00:09:03;;;;;;;3.00;1.70;;;6.70;99.90;;;;;;5030824;28;20168;-56
2023/04/01 00:11:29;;;;;;;2.40;1.37;;;6.70;99.90;;;;;;5027518;28;20234;-55
2023/04/01 00:13:56;;;;;;;1.70;1.10;;;6.70;99.90;;;;;;5029636;28;20172;-54
2023/04/01 00:16:21;;;;;;;1.83;1.17;;;6.70;99.90;;;;;;5029584;28;20458;-56
2023/04/01 00:18:48;;;;;;;2.60;1.00;;;6.70;99.90;;;;;;5024644;28;20489;-58
2023/04/01 00:21:13;;;;;;;4.73;1.30;;;6.70;99.90;;;;;;5023244;28;20214;-55
2023/04/01 00:23:39;;;;;;;4.13;1.10;;;6.70;99.90;;;;;;5027926;28;20940;-55
2023/04/01 00:26:05;;;;;;;1.90;1.07;;;6.70;99.90;;;;;;5030065;28;20669;-55
2023/04/01 00:28:33;;;;;;;1.80;1.23;;;6.70;99.90;;;;;;5029082;28;20269;-54
2023/04/01 00:31:03;;;;;;;1.97;1.00;;;6.70;99.90;;;;;;5027955;28;20439;-54
2023/04/01 00:33:28;;;;;;;1.07;0.90;;;6.70;99.90;;;;;;5027748;28;21530;-55
2023/04/01 00:35:54;;;;;;;4.20;1.23;;;6.70;99.90;;;;;;5029507;28;20476;-55
2023/04/01 00:38:19;;;;;;;0.97;0.90;;;6.70;99.90;;;;;;5028979;28;20210;-57
2023/04/01 00:40:46;;;;;;;2.40;1.07;;;6.70;99.90;;;;;;5030183;28;20184;-55
2023/04/01 00:43:20;;;;;;;1.63;0.90;;;6.70;99.90;;;;;;5026199;28;20765;-55
2023/04/01 00:45:48;;;;;;;2.97;1.10;;;6.60;99.90;;;;;;5027174;28;20467;-54
2023/04/01 00:48:22;;;;;;;2.33;1.23;;;6.60;99.90;;;;;;5028670;28;20461;-55
2023/04/01 00:51:09;;;;;;;3.93;1.20;;;6.60;99.90;;;;;;5028023;28;20434;-57
2023/04/01 00:53:39;;;;;;;2.03;1.10;;;6.60;99.90;;;;;;5027752;28;20398;-54
2023/04/01 00:56:15;;;;;;;1.40;1.30;;;6.60;99.90;;;;;;5018124;28;20422;-55
2023/04/01 00:58:46;;;;;;;2.17;1.10;;;6.60;99.90;;;;;;5028830;28;20434;-55
2023/04/01 01:01:11;;;;;;;2.20;1.33;;;6.60;99.90;;;;;;5025199;28;20815;-56
2023/04/01 01:03:37;;;;;;;1.47;1.30;;;6.60;99.90;;;;;;5027405;28;20442;-56
2023/04/01 01:06:21;;;;;;;1.37;1.17;;;6.60;99.90;;;;;;5025390;28;20223;-55
2023/04/01 01:09:03;;;;;;;1.43;1.00;;;6.60;99.90;;;;;;5024109;28;20191;-56
2023/04/01 01:11:51;;;;;;;5.13;1.10;;;6.60;99.90;;;;;;5023189;28;20430;-56
2023/04/01 01:14:41;;;;;;;1.93;0.93;;;6.60;99.90;;;;;;5025325;28;20407;-55
2023/04/01 01:17:13;;;;;;;1.37;0.83;;;6.60;99.90;;;;;;5029551;28;20473;-54
2023/04/01 01:19:57;;;;;;;1.07;0.77;;;6.50;99.90;;;;;;5024176;28;20430;-56
2023/04/01 01:22:54;;;;;;;1.30;0.90;;;6.50;99.90;;;;;;5029557;28;20449;-57
2023/04/01 01:25:30;;;;;;;0.87;0.87;;;6.40;99.90;;;;;;5025908;28;20461;-54
2023/04/01 01:28:08;;;;;;;1.53;0.87;;;6.30;99.90;;;;;;5022608;28;20577;-55
2023/04/01 01:30:41;;;;;;;3.03;0.90;;;6.30;99.90;;;;;;5026663;28;20488;-55
2023/04/01 01:33:25;;;;;;;1.73;0.90;;;6.30;99.90;;;;;;5028592;28;20438;-55
2023/04/01 01:35:55;;;;;;;4.00;0.83;;;6.30;99.90;;;;;;5029504;28;20438;-53
2023/04/01 01:38:28;;;;;;;0.90;0.90;;;6.30;99.90;;;;;;5028613;28;20441;-55
2023/04/01 01:40:57;;;;;;;1.33;1.23;;;6.20;99.90;;;;;;5028767;28;20461;-56
2023/04/01 01:43:28;;;;;;;0.97;0.87;;;6.20;99.90;;;;;;5028014;28;20465;-57
2023/04/01 01:45:57;;;;;;;1.07;0.80;;;6.20;99.90;;;;;;5025308;28;20466;-54
2023/04/01 01:48:26;;;;;;;1.53;1.07;;;6.20;99.90;;;;;;5018885;28;20991;-55
2023/04/01 01:50:52;;;;;;;2.13;0.80;;;6.20;99.90;;;;;;5031871;28;20437;-55
2023/04/01 01:53:18;;;;;;;6.03;0.90;;;6.10;99.90;;;;;;5027510;28;20521;-57
2023/04/01 01:55:45;;;;;;;5.33;0.90;;;6.10;99.90;;;;;;5027086;28;20669;-55
2023/04/01 01:58:34;;;;;;;1.70;1.00;;;6.00;99.90;;;;;;5021425;28;20207;-56
2023/04/01 02:01:03;;;;;;;1.10;1.00;;;6.00;99.90;;;;;;5036090;28;20410;-56
2023/04/01 02:03:32;;;;;;;0.70;0.70;;;6.00;99.90;;;;;;5026077;28;20930;-55
2023/04/01 02:06:00;;;;;;;1.47;1.00;;;6.00;99.90;;;;;;5023149;28;20481;-57
2023/04/01 02:08:30;;;;;;;1.10;1.00;;;6.10;99.90;;;;;;5029332;28;20443;-57
2023/04/01 02:11:00;;;;;;;3.33;1.07;;;6.10;99.90;;;;;;5037713;28;20403;-54
2023/04/01 02:13:54;;;;;;;4.87;1.13;;;6.10;99.90;;;;;;5028478;28;20433;-55
2023/04/01 02:16:29;;;;;;;1.50;1.00;;;6.10;99.90;;;;;;5029166;28;20443;-54
2023/04/01 02:18:57;;;;;;;8.97;4.43;;;6.10;99.90;;;;;;5022461;28;20461;-56
2023/04/01 02:21:25;;;;;;;2.87;1.20;;;6.10;99.90;;;;;;5027069;28;20918;-57
2023/04/01 02:23:53;;;;;;;1.60;1.10;;;6.10;99.90;;;;;;5026052;28;20442;-56
2023/04/01 02:26:20;;;;;;;3.00;1.07;;;6.10;99.90;;;;;;5028894;28;21014;-56
2023/04/01 02:28:47;;;;;;;1.93;1.30;;;6.00;99.90;;;;;;5029168;28;20418;-54
2023/04/01 02:31:14;;;;;;;1.47;1.20;;;6.10;99.90;;;;;;5028585;28;20430;-56
2023/04/01 02:33:41;;;;;;;1.53;0.97;;;6.00;99.90;;;;;;5027400;28;20441;-55
2023/04/01 02:36:14;;;;;;;2.70;1.27;;;6.00;99.90;;;;;;5024732;28;21037;-55
2023/04/01 02:38:41;;;;;;;2.53;1.17;;;6.00;99.90;;;;;;5023318;28;20964;-55
2023/04/01 02:41:07;;;;;;;1.93;1.30;;;6.00;99.90;;;;;;5027921;28;20441;-55
2023/04/01 02:43:33;;;;;;;1.50;0.90;;;6.00;99.90;;;;;;5029122;28;20411;-55
2023/04/01 02:45:59;;;;;;;1.23;1.07;;;6.10;99.90;;;;;;5025970;28;20756;-54
2023/04/01 02:48:24;;;;;;;2.13;1.10;;;6.10;99.90;;;;;;5026720;28;20180;-54
2023/04/01 02:50:50;;;;;;;2.20;0.90;;;6.10;99.90;;;;;;5029000;28;20254;-54
2023/04/01 02:53:16;;;;;;;1.20;1.10;;;6.10;99.90;;;;;;5026597;28;20233;-57
2023/04/01 02:55:42;;;;;;;2.93;1.40;;;6.00;99.90;;;;;;5025076;28;20245;-57
2023/04/01 02:58:08;;;;;;;4.13;1.30;;;6.10;99.90;;;;;;5026593;28;20954;-55
2023/04/01 03:00:33;;;;;;;1.17;1.00;;;6.00;99.90;;;;;;5027976;28;20171;-55
2023/04/01 03:02:59;;;;;;;1.23;0.90;;;6.00;99.90;;;;;;5026461;28;20186;-56
2023/04/01 03:05:25;;;;;;;2.10;1.00;;;6.00;99.90;;;;;;5023273;28;20176;-56
2023/04/01 03:07:51;;;;;;;3.03;1.00;;;6.00;99.90;;;;;;5027952;28;20466;-56
2023/04/01 03:10:17;;;;;;;0.97;0.90;;;6.10;99.90;;;;;;5025221;28;20426;-56
2023/04/01 03:12:42;;;;;;;2.00;1.10;;;6.10;99.90;;;;;;5022742;28;20302;-55
2023/04/01 03:15:11;;;;;;;0.93;0.90;;;6.10;99.90;;;;;;5027783;28;20847;-56
2023/04/01 03:17:37;;;;;;;1.27;0.90;;;6.10;99.90;;;;;;5026450;28;20286;-55
2023/04/01 03:20:04;;;;;;;4.20;0.90;;;6.10;99.90;;;;;;5026167;28;20430;-56
2023/04/01 03:22:30;;;;;;;3.23;1.10;;;6.10;99.90;;;;;;5025902;28;20496;-56
2023/04/01 03:24:56;;;;;;;2.97;0.97;;;6.10;99.90;;;;;;5026504;28;20844;-55
2023/04/01 03:27:23;;;;;;;3.20;1.20;;;6.10;99.90;;;;;;5028222;28;20484;-54
2023/04/01 03:29:48;;;;;;;1.27;1.10;;;6.10;99.90;;;;;;5025227;28;20616;-56
2023/04/01 03:32:14;;;;;;;1.83;1.00;;;6.10;99.90;;;;;;5027968;28;20444;-56
2023/04/01 03:34:40;;;;;;;1.83;1.20;;;6.10;99.90;;;;;;5025052;28;20184;-56
2023/04/01 03:37:05;;;;;;;1.17;1.00;;;6.10;99.90;;;;;;5027721;28;20200;-55
2023/04/01 03:39:31;;;;;;;2.07;1.00;;;6.00;99.90;;;;;;5028517;28;20172;-55
2023/04/01 03:41:57;;;;;;;2.53;1.00;;;6.10;99.90;;;;;;5026230;28;20179;-55
2023/04/01 03:44:23;;;;;;;1.77;1.13;;;6.00;99.90;;;;;;5024808;28;20441;-55
2023/04/01 03:46:48;;;;;;;1.30;0.80;;;6.00;99.90;;;;;;5024306;28;20747;-54
2023/04/01 03:49:14;;;;;;;1.63;1.20;;;6.00;99.90;;;;;;5022430;28;20177;-55
2023/04/01 03:51:41;;;;;;;4.03;1.10;;;6.00;99.90;;;;;;5024961;28;20215;-56
2023/04/01 03:54:07;;;;;;;2.90;1.03;;;6.10;99.90;;;;;;5023741;28;20178;-56
2023/04/01 03:56:32;;;;;;;2.00;0.83;;;6.10;99.90;;;;;;5027931;28;20478;-56
2023/04/01 03:58:58;;;;;;;3.17;1.00;;;6.10;99.90;;;;;;5030275;28;20473;-56
2023/04/01 04:01:24;;;;;;;0.90;0.90;;;6.10;99.90;;;;;;5029237;28;20226;-54
2023/04/01 04:03:51;;;;;;;1.07;0.97;;;6.10;99.90;;;;;;5026223;28;20586;-58
2023/04/01 04:06:18;;;;;;;1.73;1.03;;;6.10;99.90;;;;;;5029776;28;20469;-55
2023/04/01 04:08:44;;;;;;;1.23;1.00;;;6.10;99.90;;;;;;5031427;28;20813;-55
2023/04/01 04:11:10;;;;;;;1.20;1.10;;;6.10;99.90;;;;;;5027172;28;20537;-55
2023/04/01 04:13:36;;;;;;;5.40;1.10;;;6.10;99.90;;;;;;5024905;28;21337;-56
2023/04/01 04:16:03;;;;;;;2.33;1.00;;;6.10;99.90;;;;;;5029793;28;20275;-55
2023/04/01 04:18:29;;;;;;;1.13;1.03;;;6.10;99.90;;;;;;5030115;28;20871;-56
2023/04/01 04:20:55;;;;;;;0.97;0.87;;;6.10;99.90;;;;;;5024541;28;20421;-54
2023/04/01 04:23:20;;;;;;;3.93;1.20;;;6.10;99.90;;;;;;5027224;28;20442;-55
2023/04/01 04:26:01;;;;;;;2.03;1.40;;;6.10;99.90;;;;;;5023544;28;20214;-57
2023/04/01 04:28:27;;;;;;;2.07;1.20;;;6.10;99.90;;;;;;5025898;28;20175;-55
2023/04/01 04:30:54;;;;;;;1.33;1.10;;;6.10;99.90;;;;;;5030862;28;20426;-55
2023/04/01 04:33:21;;;;;;;1.13;0.97;;;6.10;99.90;;;;;;5021106;28;20514;-56
2023/04/01 04:35:46;;;;;;;2.70;1.30;;;6.10;99.90;;;;;;5030600;28;20426;-55
2023/04/01 04:38:12;;;;;;;3.73;1.40;;;6.10;99.90;;;;;;5030630;28;20454;-56
2023/04/01 04:40:39;;;;;;;3.10;1.40;;;6.10;99.90;;;;;;5030231;28;20190;-55
2023/04/01 04:43:05;;;;;;;1.70;1.43;;;6.10;99.90;;;;;;5025300;28;20445;-57
2023/04/01 04:45:31;;;;;;;4.50;1.30;;;6.10;99.90;;;;;;5029251;28;20414;-56
2023/04/01 04:47:57;;;;;;;3.07;1.20;;;6.10;99.90;;;;;;5030313;28;20446;-55
2023/04/01 04:50:23;;;;;;;2.63;1.10;;;6.10;99.90;;;;;;5019777;28;20415;-54
2023/04/01 04:52:49;;;;;;;7.00;1.67;;;6.10;99.90;;;;;;5029449;28;20448;-55
2023/04/01 04:55:15;;;;;;;2.87;1.40;;;6.10;99.90;;;;;;5028727;28;20829;-55
2023/04/01 04:57:41;;;;;;;10.60;1.10;;;6.10;99.90;;;;;;5031215;28;20187;-55
2023/04/01 05:00:07;;;;;;;2.17;1.20;;;6.10;99.90;;;;;;5028483;28;20172;-54
2023/04/01 05:02:33;;;;;;;2.40;1.33;;;6.10;99.90;;;;;;5023766;28;20247;-58
2023/04/01 05:04:59;;;;;;;1.10;0.80;;;6.10;99.90;;;;;;5027113;28;20477;-55
2023/04/01 05:07:25;;;;;;;0.97;0.80;;;6.10;99.90;;;;;;5028461;28;20481;-55
2023/04/01 05:09:50;;;;;;;0.80;0.80;;;6.00;99.90;;;;;;5029119;28;20172;-54
2023/04/01 05:12:16;;;;;;;2.10;1.00;;;6.00;99.90;;;;;;5029408;28;20178;-56
2023/04/01 05:14:41;;;;;;;1.80;0.97;;;6.00;99.90;;;;;;5024385;28;20182;-57
2023/04/01 05:17:11;;;;;;;1.70;1.00;;;6.00;99.90;;;;;;5029126;28;20699;-54
2023/04/01 05:19:38;;;;;;;2.80;1.07;;;6.00;99.90;;;;;;5019681;28;20265;-54
2023/04/01 05:22:04;;;;;;;2.20;1.20;;;6.00;99.90;;;;;;5024387;28;20446;-51
2023/04/01 05:24:30;;;;;;;2.50;1.47;;;6.00;99.90;;;;;;5014770;28;20431;-56
2023/04/01 05:26:57;;;;;;;1.60;1.17;;;6.00;99.90;;;;;;5021511;28;20544;-54
2023/04/01 05:29:23;;;;;;;3.27;1.10;;;6.00;99.90;;;;;;5024712;28;21204;-54
2023/04/01 05:31:48;;;;;;;0.83;0.83;;;6.00;99.90;;;;;;5029392;28;20461;-55
2023/04/01 05:34:14;;;;;;;3.90;1.10;;;6.00;99.90;;;;;;5025688;28;20494;-57
2023/04/01 05:36:41;;;;;;;2.13;1.17;;;6.00;99.90;;;;;;5023473;28;20231;-57
2023/04/01 05:39:07;;;;;;;4.23;1.40;;;6.00;99.90;;;;;;5023818;28;20646;-56
2023/04/01 05:41:35;;;;;;;1.60;0.90;;;6.00;99.90;;;;;;5020122;28;20433;-54
2023/04/01 05:44:01;;;;;;;1.07;0.80;;;6.00;99.90;;;;;;5026486;28;20176;-55
2023/04/01 05:46:26;;;;;;;1.37;1.07;;;6.00;99.90;;;;;;5015804;28;20512;-53
2023/04/01 05:48:52;;;;;;;1.00;0.80;;;6.00;99.90;;;;;;5025806;28;20206;-54
2023/04/01 05:51:17;;;;;;;1.20;0.87;;;6.00;99.90;;;;;;5018726;28;20203;-55
2023/04/01 05:53:43;;;;;;;1.63;1.10;;;6.00;99.90;;;;;;5023571;28;20176;-56
2023/04/01 05:56:09;;;;;;;0.80;0.80;;;6.10;99.90;;;;;;5019023;28;20195;-57
2023/04/01 05:58:36;;;;;;;3.23;0.93;;;6.10;99.90;;;;;;5017792;28;20215;-54
2023/04/01 06:01:07;;;;;;;3.43;1.10;;;6.10;99.90;;;;;;5018252;28;20180;-54
2023/04/01 06:03:33;;;;;;;1.40;1.30;;;6.20;99.90;;;;;;5021311;28;20457;-54
2023/04/01 06:06:00;;;;;;;1.20;1.10;;;6.30;99.90;;;;;;5017845;28;20473;-56
2023/04/01 06:08:27;;;;;;;0.97;0.87;;;6.30;99.90;;;;;;5014864;28;20919;-55
2023/04/01 06:11:30;;;;;;;4.10;2.10;;;6.30;99.90;;;;;;5016256;28;21254;-55
2023/04/01 06:14:07;;;;;;;3.20;1.53;;;6.40;99.90;;;;;;5025272;28;20460;-55
2023/04/01 06:17:05;;;;;;;1.07;0.97;;;6.50;99.90;;;;;;5023915;28;20825;-55
2023/04/01 06:19:36;;;;;;;1.67;1.00;;;6.50;99.90;;;;;;5025989;28;20423;-57
2023/04/01 06:22:01;;;;;;;2.30;0.87;;;6.60;99.90;;;;;;5023022;28;20853;-55
2023/04/01 06:24:47;;;;;;;8.30;1.30;;;6.60;99.90;;;;;;5027186;28;20435;-54
2023/04/01 06:27:54;;;;;;;2.00;1.50;;;6.70;99.90;;;;;;5021544;28;20221;-55
2023/04/01 06:30:42;;;;;;;1.80;0.87;;;6.70;99.90;;;;;;5019788;28;20427;-56
2023/04/01 06:33:58;;;;;;;1.63;1.20;;;6.70;99.90;;;;;;5018472;28;20431;-55
2023/04/01 06:36:42;;;;;;;2.13;1.20;;;6.70;99.90;;;;;;5018350;28;20459;-58
2023/04/01 06:39:16;;;;;;;1.27;1.00;;;6.80;99.90;;;;;;5020856;28;20461;-54
2023/04/01 06:41:44;;;;;;;2.07;1.60;;;6.80;99.90;;;;;;5022265;28;20489;-56
2023/04/01 06:44:25;;;;;;;1.97;1.87;;;6.80;99.90;;;;;;5018254;28;20483;-57
2023/04/01 06:47:32;;;;;;;3.33;2.63;;;6.80;99.90;;;;;;5019755;28;20466;-55
2023/04/01 06:50:29;;;;;;;7.00;4.10;;;6.80;99.90;;;;;;5026533;28;20584;-59
2023/04/01 06:52:55;;;;;;;3.80;3.40;;;6.80;99.90;;;;;;5016631;28;20427;-58
2023/04/01 06:55:20;;;;;;;1.90;1.80;;;6.80;99.90;;;;;;5019851;28;20442;-55
2023/04/01 06:57:52;;;;;;;3.60;2.13;;;6.80;99.90;;;;;;5026378;28;20192;-55
2023/04/01 07:00:35;;;;;;;1.73;1.60;;;6.80;99.90;;;;;;5023557;28;20194;-55
2023/04/01 07:03:01;;;;;;;2.63;1.70;;;6.80;99.90;;;;;;5019458;28;20430;-55
2023/04/01 07:05:31;;;;;;;2.33;2.13;;;6.80;99.90;;;;;;5025873;28;20430;-55
2023/04/01 07:08:00;;;;;;;1.70;1.20;;;6.80;99.90;;;;;;5025060;28;20207;-55
2023/04/01 07:11:02;;;;;;;2.90;1.23;;;6.80;99.90;;;;;;5025804;28;20472;-57
2023/04/01 07:13:36;;;;;;;4.20;1.27;;;6.80;99.90;;;;;;5026326;28;20504;-56
2023/04/01 07:16:37;;;;;;;2.33;1.20;;;6.80;99.90;;;;;;5028629;28;20435;-55
2023/04/01 07:19:12;;;;;;;0.83;0.83;;;6.80;99.90;;;;;;5015537;28;20437;-56
2023/04/01 07:21:47;;;;;;;3.13;1.40;;;6.80;99.90;;;;;;5027403;28;20429;-55
2023/04/01 07:24:21;;;;;;;2.73;1.70;;;6.80;99.90;;;;;;5026421;28;20430;-55
2023/04/01 07:26:52;;;;;;;1.40;1.00;;;6.80;99.90;;;;;;5018193;28;20925;-55
2023/04/01 07:29:18;;;;;;;1.13;1.07;;;6.80;99.90;;;;;;5023932;28;20430;-55
2023/04/01 07:31:56;;;;;;;4.13;1.20;;;6.80;99.90;;;;;;5027405;28;20422;-55
2023/04/01 07:34:24;;;;;;;1.97;1.30;;;6.80;99.90;;;;;;5031186;28;20434;-55
2023/04/01 07:37:09;;;;;;;3.67;1.20;;;6.80;99.90;;;;;;5028819;28;20450;-56
2023/04/01 07:39:37;;;;;;;1.80;1.20;;;6.80;99.90;;;;;;5030426;28;20513;-56
2023/04/01 07:42:15;;;;;;;0.93;0.93;;;6.80;99.90;;;;;;5032086;28;20505;-55
2023/04/01 07:45:05;;;;;;;1.53;1.00;;;6.80;99.90;;;;;;5024759;28;20426;-56
2023/04/01 07:47:56;;;;;;;1.07;1.00;;;6.80;99.90;;;;;;5026219;28;20462;-54
2023/04/01 07:50:37;;;;;;;1.43;0.90;;;6.80;99.90;;;;;;5017285;28;20455;-57
2023/04/01 07:53:08;;;;;;;1.10;1.00;;;6.70;99.90;;;;;;5017216;28;20949;-54
2023/04/01 07:55:37;;;;;;;0.83;0.83;;;6.70;99.90;;;;;;5027031;28;20954;-55
2023/04/01 07:58:11;;;;;;;0.90;0.90;;;6.60;99.90;;;;;;5023521;28;20811;-56
2023/04/01 08:00:57;;;;;;;1.93;0.80;;;6.50;99.90;;;;;;5023921;28;20421;-56
2023/04/01 08:03:36;;;;;;;0.80;0.80;;;6.50;99.90;;;;;;5027065;28;20421;-56
2023/04/01 08:06:37;;;;;;;0.80;0.80;;;6.40;99.90;;;;;;5017824;28;20465;-53
2023/04/01 08:09:07;;;;;;;2.13;0.97;;;6.30;99.90;;;;;;5018164;28;20442;-56
2023/04/01 08:12:01;;;;;;;1.00;1.00;;;6.20;99.90;;;;;;5026168;28;20437;-54
2023/04/01 08:14:32;;;;;;;1.33;0.90;;;6.20;99.90;;;;;;5024950;28;20442;-55
2023/04/01 08:17:24;;;;;;;0.77;0.77;;;6.20;99.90;;;;;;5025073;28;20458;-52
2023/04/01 08:19:56;;;;;;;0.90;0.90;;;6.10;99.90;;;;;;5024811;28;20423;-55
2023/04/01 08:22:46;;;;;;;1.20;1.10;;;6.10;99.90;;;;;;5028172;28;21149;-54
2023/04/01 08:25:20;;;;;;;0.90;0.90;;;6.10;99.90;;;;;;5022915;28;20527;-56
2023/04/01 08:27:53;;;;;;;2.70;1.43;;;6.10;99.90;;;;;;5027285;28;20465;-55
2023/04/01 08:30:45;;;;;;;2.00;1.00;;;6.10;99.90;;;;;;5028064;28;20874;-52
2023/04/01 08:33:30;;;;;;;1.33;1.23;;;6.10;99.90;;;;;;5027925;28;20445;-52
2023/04/01 08:36:16;;;;;;;2.70;1.50;;;6.10;99.90;;;;;;5028843;28;20513;-53
2023/04/01 08:39:05;;;;;;;1.20;1.00;;;6.10;99.90;;;;;;5024417;28;20500;-54
2023/04/01 08:41:49;;;;;;;2.10;1.60;;;6.20;99.90;;;;;;5026451;28;20839;-54
2023/04/01 08:44:53;;;;;;;1.10;1.00;;;6.20;99.90;;;;;;5019612;28;20430;-53
2023/04/01 08:47:37;;;;;;;1.40;1.10;;;6.30;99.90;;;;;;5019573;28;20825;-52
2023/04/01 08:50:23;;;;;;;1.33;1.10;;;6.30;99.90;;;;;;5029284;28;20430;-55
2023/04/01 08:53:07;;;;;;;1.10;1.00;;;6.40;99.90;;;;;;5025578;28;20430;-52
2023/04/01 08:55:44;;;;;;;2.20;1.23;;;6.40;99.90;;;;;;5025047;28;20472;-58
2023/04/01 08:58:32;;;;;;;2.87;1.50;;;6.50;99.90;;;;;;5025038;28;20426;-52
2023/04/01 09:01:04;;;;;;;1.73;1.43;;;6.50;99.90;;;;;;5025834;28;20430;-56
2023/04/01 09:03:47;;;;;;;3.77;1.60;;;6.60;99.90;;;;;;5027418;28;20449;-54
2023/04/01 09:06:35;;;;;;;1.50;1.40;;;6.60;99.90;;;;;;5026893;28;20458;-57
2023/04/01 09:09:24;;;;;;;1.47;1.10;;;6.60;99.90;;;;;;5023452;28;20430;-57
2023/04/01 09:12:14;;;;;;;2.30;1.63;;;6.60;99.90;;;;;;5021933;28;20927;-54
2023/04/01 09:15:05;;;;;;;1.83;1.40;;;6.60;99.90;;;;;;5026605;28;20431;-55
2023/04/01 09:17:45;;;;;;;1.40;1.30;;;6.60;99.90;;;;;;5029559;28;20459;-52
2023/04/01 09:20:47;;;;;;;1.37;1.27;;;6.60;99.90;;;;;;5020426;28;20430;-51
2023/04/01 09:23:31;;;;;;;1.03;1.00;;;6.60;99.90;;;;;;5022439;28;20503;-55
2023/04/01 09:26:18;;;;;;;1.60;1.30;;;6.70;99.90;;;;;;5017070;28;20495;-53
2023/04/01 09:29:10;;;;;;;2.00;1.10;;;6.60;99.90;;;;;;5027959;28;20426;-56
2023/04/01 09:31:56;;;;;;;1.30;1.20;;;6.70;99.90;;;;;;5016572;28;20450;-56
2023/04/01 09:34:55;;;;;;;1.67;1.10;;;6.70;99.90;;;;;;5024539;28;22207;-55
2023/04/01 09:37:36;;;;;;;1.40;1.30;;;6.60;99.90;;;;;;5026269;28;20544;-56
2023/04/01 09:40:17;;;;;;;4.40;3.03;;;6.60;99.90;;;;;;5022797;28;20434;-54
2023/04/01 09:42:58;;;;;;;1.20;1.10;;;6.60;99.90;;;;;;5020944;28;20506;-55
2023/04/01 09:45:46;;;;;;;1.00;1.00;;;6.70;99.90;;;;;;5013534;28;20442;-55
2023/04/01 09:48:22;;;;;;;1.00;1.00;;;6.60;99.90;;;;;;5029726;28;20525;-54
2023/04/01 09:51:16;;;;;;;1.80;1.00;;;6.60;99.90;;;;;;5028545;28;20516;-55
2023/04/01 09:53:44;;;;;;;1.37;1.13;;;6.60;99.90;;;;;;5026983;28;20505;-54
2023/04/01 09:56:32;;;;;;;2.17;1.10;;;6.60;99.90;;;;;;5021826;28;20536;-55
2023/04/01 09:59:16;;;;;;;0.93;0.90;;;6.60;99.90;;;;;;5027865;28;20423;-53
2023/04/01 10:02:16;;;;;;;0.90;0.90;;;6.60;99.90;;;;;;5027799;28;20438;-53
2023/04/01 10:05:19;;;;;;;0.80;0.80;;;6.60;99.90;;;;;;5026270;28;21198;-55
2023/04/01 10:08:03;;;;;;;1.20;1.10;;;6.60;99.90;;;;;;5026628;28;20565;-56
2023/04/01 10:10:48;;;;;;;2.50;0.90;;;6.60;99.90;;;;;;5017323;28;20424;-56
2023/04/01 10:13:32;;;;;;;1.20;1.10;;;6.60;99.90;;;;;;5022743;28;20854;-56
2023/04/01 10:16:10;;;;;;;1.20;1.10;;;6.60;99.90;;;;;;5025922;28;20469;-55
2023/04/01 10:19:00;;;;;;;0.90;0.90;;;6.60;99.90;;;;;;5029263;28;20497;-54
2023/04/01 10:21:41;;;;;;;1.10;1.10;;;6.60;99.90;;;;;;5026693;28;20427;-56
2023/04/01 10:24:19;;;;;;;0.90;0.90;;;6.70;99.90;;;;;;5024904;28;20430;-56
2023/04/01 10:26:50;;;;;;;1.40;1.30;;;6.80;99.90;;;;;;5029311;28;20493;-56
2023/04/01 10:29:53;;;;;;;2.90;2.30;;;6.90;99.90;;;;;;5028375;28;20899;-55
2023/04/01 10:32:56;;;;;;;1.87;1.33;;;6.90;99.90;;;;;;5027079;28;20465;-55
2023/04/01 10:35:37;;;;;;;1.33;1.20;;;6.90;99.90;;;;;;5028206;28;20427;-56
2023/04/01 10:38:14;;;;;;;1.60;1.40;;;6.90;99.90;;;;;;5014113;28;20985;-56
2023/04/01 10:41:11;;;;;;;1.33;1.13;;;6.90;99.90;;;;;;5027949;28;20433;-56
2023/04/01 10:43:52;;;;;;;1.33;1.10;;;6.90;99.90;;;;;;5024704;28;20443;-56
2023/04/01 10:47:03;;;;;;;1.03;1.00;;;6.90;99.90;;;;;;5016590;28;20466;-54
2023/04/01 10:49:47;;;;;;;1.20;1.10;;;6.90;99.90;;;;;;5024097;28;21053;-54
2023/04/01 10:52:31;;;;;;;1.07;1.07;;;6.90;99.90;;;;;;5021225;28;21005;-55
2023/04/01 10:55:03;;;;;;;1.40;1.20;;;6.90;99.90;;;;;;5026894;28;20415;-54
2023/04/01 10:57:40;;;;;;;2.07;1.20;;;6.90;99.90;;;;;;5029228;28;20434;-54
2023/04/01 11:00:32;;;;;;;1.23;1.10;;;7.00;99.90;;;;;;5028241;28;20461;-54
2023/04/01 11:03:00;;;;;;;2.27;1.00;;;7.00;99.90;;;;;;5018637;28;20418;-55
2023/04/01 11:05:51;;;;;;;1.60;1.50;;;7.00;99.90;;;;;;5028236;28;20424;-55
2023/04/01 11:08:38;;;;;;;2.00;1.23;;;7.10;99.90;;;;;;5028426;28;20489;-54
2023/04/01 11:11:42;;;;;;;1.33;1.23;;;7.20;99.90;;;;;;5030095;28;20484;-56
2023/04/01 11:14:39;;;;;;;1.37;1.27;;;7.20;99.90;;;;;;5024333;28;20522;-54
2023/04/01 11:17:14;;;;;;;1.60;1.50;;;7.30;99.90;;;;;;5028295;28;20446;-52
2023/04/01 11:19:58;;;;;;;1.20;1.10;;;7.30;99.90;;;;;;5027205;28;20498;-54
2023/04/01 11:22:29;;;;;;;2.30;1.20;;;7.30;99.90;;;;;;5022291;28;20447;-53
2023/04/01 11:25:34;;;;;;;1.80;1.43;;;7.40;99.90;;;;;;5026095;28;20871;-53
2023/04/01 11:28:26;;;;;;;1.30;1.20;;;7.40;99.90;;;;;;5024286;28;20513;-55
2023/04/01 11:31:22;;;;;;;1.47;1.37;;;7.40;99.90;;;;;;5024674;28;20430;-54
2023/04/01 11:34:02;;;;;;;1.27;1.03;;;7.40;99.90;;;;;;5021188;28;20462;-54
2023/04/01 11:36:59;;;;;;;2.63;1.50;;;7.50;99.90;;;;;;5021088;28;20974;-56
2023/04/01 11:39:43;;;;;;;1.63;1.43;;;7.50;99.90;;;;;;5016276;28;20427;-56
2023/04/01 11:42:23;;;;;;;3.10;1.27;;;7.50;99.90;;;;;;5021512;28;20449;-55
2023/04/01 11:45:07;;;;;;;1.70;1.20;;;7.60;99.90;;;;;;5025190;28;20421;-57
2023/04/01 11:47:58;;;;;;;3.63;1.53;;;7.70;99.90;;;;;;5023409;28;20997;-55
2023/04/01 11:50:27;;;;;;;1.50;1.40;;;7.80;99.90;;;;;;5027468;28;20426;-53
2023/04/01 11:53:04;;;;;;;2.50;1.47;;;7.90;99.90;;;;;;5025850;28;20441;-54
2023/04/01 11:55:47;;;;;;;2.40;1.10;;;8.10;99.90;;;;;;5030326;28;20422;-56
2023/04/01 11:58:28;;;;;;;1.00;0.93;;;8.30;99.90;;;;;;5026076;28;20474;-54
2023/04/01 12:01:12;;;;;;;1.83;1.30;;;8.40;99.90;;;;;;5021996;28;20425;-55
2023/04/01 12:04:05;;;;;;;1.40;1.30;;;8.50;99.90;;;;;;5029421;28;20441;-55
2023/04/01 12:06:40;;;;;;;1.30;1.20;;;8.50;99.90;;;;;;5026837;28;20837;-54
2023/04/01 12:09:25;;;;;;;0.80;0.80;;;8.50;99.90;;;;;;5022872;28;20522;-53
2023/04/01 12:12:18;;;;;;;0.90;0.90;;;8.50;99.90;;;;;;5023232;28;20430;-54
2023/04/01 12:15:04;;;;;;;1.27;0.90;;;8.50;99.90;;;;;;5029219;28;20847;-53
2023/04/01 12:17:59;;;;;;;1.63;0.90;;;8.50;99.90;;;;;;5022864;28;20446;-55
2023/04/01 12:20:41;;;;;;;1.07;0.90;;;8.60;99.90;;;;;;5020071;28;20426;-55
2023/04/01 12:23:16;;;;;;;0.80;0.80;;;8.50;99.90;;;;;;5020305;28;20995;-54
2023/04/01 12:26:11;;;;;;;1.67;1.00;;;8.50;99.90;;;;;;5029136;28;20430;-55
2023/04/01 12:29:12;;;;;;;0.80;0.80;;;8.50;99.90;;;;;;5024285;28;21733;-52
2023/04/01 12:32:04;;;;;;;0.90;0.90;;;8.40;99.90;;;;;;5023610;28;20434;-53
2023/04/01 12:35:08;;;;;;;0.80;0.80;;;8.40;99.90;;;;;;5025837;28;20488;-56
2023/04/01 12:37:40;;;;;;;0.90;0.90;;;8.40;99.90;;;;;;5024277;28;20453;-56
2023/04/01 12:40:43;;;;;;;1.23;0.90;;;8.50;99.90;;;;;;5026600;28;20517;-55
2023/04/01 12:43:27;;;;;;;1.07;0.80;;;8.50;99.90;;;;;;5022073;28;20433;-55
2023/04/01 12:46:15;;;;;;;0.77;0.77;;;8.60;99.90;;;;;;5023520;28;20509;-53
2023/04/01 12:49:15;;;;;;;0.93;0.90;;;8.70;99.90;;;;;;5026795;28;20425;-58
2023/04/01 12:52:02;;;;;;;0.90;0.90;;;8.70;99.90;;;;;;5019789;28;20485;-55
2023/04/01 12:54:47;;;;;;;0.80;0.80;;;8.70;99.90;;;;;;5017044;28;20453;-55
2023/04/01 12:57:27;;;;;;;1.13;0.90;;;8.70;99.90;;;;;;5026931;28;20524;-53
2023/04/01 12:59:58;;;;;;;0.80;0.80;;;8.70;99.90;;;;;;5017820;28;21423;-53
2023/04/01 13:02:38;;;;;;;0.80;0.80;;;8.70;99.90;;;;;;5027191;28;20427;-55
2023/04/01 13:05:19;;;;;;;2.77;0.93;;;8.60;99.90;;;;;;5022093;28;20418;-55
2023/04/01 13:08:08;;;;;;;1.10;1.00;;;8.60;99.90;;;;;;5025875;28;20474;-52
2023/04/01 13:10:42;;;;;;;1.10;1.10;;;8.60;99.90;;;;;;5028493;28;20437;-53
2023/04/01 13:13:26;;;;;;;1.60;1.30;;;8.60;99.90;;;;;;5026324;28;20466;-53
2023/04/01 13:16:05;;;;;;;0.93;0.93;;;8.60;99.90;;;;;;5027074;28;20455;-53
2023/04/01 13:18:50;;;;;;;1.43;1.03;;;8.60;99.90;;;;;;5028400;28;20430;-55
2023/04/01 13:21:38;;;;;;;0.83;0.83;;;8.60;99.90;;;;;;5027755;28;20426;-54
2023/04/01 13:24:25;;;;;;;1.00;1.00;;;8.50;99.90;;;;;;5025568;28;20805;-53
2023/04/01 13:27:02;;;;;;;1.27;1.20;;;8.50;99.90;;;;;;5024799;28;20470;-55
2023/04/01 13:29:32;;;;;;;3.97;2.40;;;8.50;99.90;;;;;;5026134;28;20423;-54
2023/04/01 13:32:19;;;;;;;4.37;3.00;;;8.60;99.90;;;;;;5029882;28;20433;-56
2023/04/01 13:35:20;;;;;;;1.23;1.13;;;8.60;99.90;;;;;;5016209;28;20513;-54
2023/04/01 13:38:20;;;;;;;1.73;0.97;;;8.70;99.90;;;;;;5007980;28;20461;-55
2023/04/01 13:41:11;;;;;;;1.00;1.00;;;8.70;99.90;;;;;;5016373;28;20430;-55
2023/04/01 13:43:43;;;;;;;1.10;1.00;;;8.70;99.90;;;;;;5017057;28;20435;-54
2023/04/01 13:46:49;;;;;;;1.73;1.07;;;8.70;99.90;;;;;;5009728;28;20840;-54
2023/04/01 13:49:40;;;;;;;1.20;1.00;;;8.70;99.90;;;;;;5023691;28;20472;-56